Piru, California
Current Conditions -  °F | °C
As of 12:55 PM on Saturday 22 Nov 2014 (Local Time) from KCMA Reporting Station
Clear Clear  
Wind Chill: 70°   Ceiling: Unl
Heat Index: 70°   Visibility: 10mi
Dew Point: 50°   Wind: 8mph
Humidity: 49%   Direction: 240°WSW
Pressure: 30.04"   Gusts: NA
Location:  34.42°N, 118.8°W
Report Text: KCMA 222055Z 24007KT 10SM CLR 21/10 A3004 RMK AO2 SLP182 T02110100 56026
Loading
Personal Weather Stations






























Interactive Weather Map New forecast layout! Learn more

10-Day Weather Forecast

Advertisements
Track Severe Weather on mobile